createdAt,value
2022-08-18T00:02:13.788Z,17.89
2022-08-18T00:04:49.022Z,17.87
2022-08-18T00:07:21.473Z,17.85
2022-08-18T00:09:49.605Z,17.84
2022-08-18T00:12:19.670Z,17.83
2022-08-18T00:14:47.809Z,17.82
2022-08-18T00:17:16.246Z,17.82
2022-08-18T00:19:46.316Z,17.79
2022-08-18T00:22:16.866Z,17.76
2022-08-18T00:24:48.448Z,17.74
2022-08-18T00:27:22.970Z,17.71
2022-08-18T00:29:52.269Z,17.69
2022-08-18T00:32:21.804Z,17.66
2022-08-18T00:34:49.894Z,17.61
2022-08-18T00:37:18.077Z,17.57
2022-08-18T00:39:48.222Z,17.55
2022-08-18T00:42:26.933Z,17.53
2022-08-18T00:44:58.480Z,17.56
2022-08-18T00:47:41.194Z,17.61
2022-08-18T00:50:15.781Z,17.54
2022-08-18T00:52:46.519Z,17.54
2022-08-18T00:55:18.135Z,17.50
2022-08-18T00:57:46.692Z,17.47
2022-08-18T01:00:15.708Z,17.49
2022-08-18T01:02:44.680Z,17.46
2022-08-18T01:05:17.337Z,17.40
2022-08-18T01:07:47.811Z,17.37
2022-08-18T01:10:19.113Z,17.33
2022-08-18T01:12:48.680Z,17.31
2022-08-18T01:15:29.432Z,17.30
2022-08-18T01:18:17.084Z,17.28
2022-08-18T01:21:06.080Z,17.26
2022-08-18T01:23:35.690Z,17.19
2022-08-18T01:26:04.476Z,17.16
2022-08-18T01:28:33.903Z,17.16
2022-08-18T01:31:02.273Z,17.13
2022-08-18T01:33:32.836Z,17.17
2022-08-18T01:36:02.727Z,17.14
2022-08-18T01:38:32.212Z,17.12
2022-08-18T01:41:26.908Z,17.10
2022-08-18T01:43:50.287Z,17.11
2022-08-18T01:46:20.122Z,17.13
2022-08-18T01:48:48.393Z,17.11
2022-08-18T01:51:16.695Z,17.09
2022-08-18T01:53:45.271Z,17.03
2022-08-18T01:56:17.738Z,16.99
2022-08-18T01:58:47.777Z,16.97
2022-08-18T02:01:16.161Z,16.94
2022-08-18T02:03:46.798Z,16.94
2022-08-18T02:06:17.085Z,16.94
2022-08-18T02:08:46.505Z,16.96
2022-08-18T02:11:23.315Z,16.92
2022-08-18T02:13:51.675Z,16.90
2022-08-18T02:16:19.863Z,16.89
2022-08-18T02:18:48.952Z,16.83
2022-08-18T02:21:19.381Z,16.77
2022-08-18T02:23:52.989Z,16.74
2022-08-18T02:26:23.546Z,16.71
2022-08-18T02:28:51.697Z,16.68
2022-08-18T02:31:21.085Z,16.68
2022-08-18T02:33:52.236Z,16.69
2022-08-18T02:36:21.269Z,16.66
2022-08-18T02:38:54.795Z,16.63
2022-08-18T02:41:30.162Z,16.62
2022-08-18T02:43:58.579Z,16.62
2022-08-18T02:46:29.960Z,16.60
2022-08-18T02:49:00.474Z,16.57
2022-08-18T02:51:28.662Z,16.55
2022-08-18T02:53:59.342Z,16.55
2022-08-18T02:56:41.458Z,16.53
2022-08-18T02:59:12.435Z,16.49
2022-08-18T03:01:41.870Z,16.46
2022-08-18T03:04:11.140Z,16.44
2022-08-18T03:06:39.523Z,16.44
2022-08-18T03:09:08.589Z,16.44
2022-08-18T03:11:38.271Z,16.43
2022-08-18T03:14:08.703Z,16.42
2022-08-18T03:16:52.642Z,16.41
2022-08-18T03:19:23.991Z,16.38
2022-08-18T03:21:52.907Z,16.35
2022-08-18T03:24:22.898Z,16.31
2022-08-18T03:26:53.922Z,16.29
2022-08-18T03:29:22.457Z,16.27
2022-08-18T03:31:50.723Z,16.25
2022-08-18T03:34:20.711Z,16.23
2022-08-18T03:36:49.335Z,16.21
2022-08-18T03:39:17.721Z,16.19
2022-08-18T03:41:58.617Z,16.17
2022-08-18T03:44:31.640Z,16.17
2022-08-18T03:47:00.297Z,16.16
2022-08-18T03:49:28.455Z,16.19
2022-08-18T03:51:57.132Z,16.19
2022-08-18T03:54:25.650Z,16.21
2022-08-18T03:56:54.464Z,16.29
2022-08-18T03:59:24.090Z,16.33
2022-08-18T04:01:55.085Z,16.39
2022-08-18T04:04:24.394Z,16.45
2022-08-18T04:06:55.417Z,16.48
2022-08-18T04:09:24.572Z,16.50
2022-08-18T04:11:53.029Z,16.50
2022-08-18T04:14:21.899Z,16.49
2022-08-18T04:16:50.152Z,16.53
2022-08-18T04:19:26.520Z,16.55
2022-08-18T04:21:56.173Z,16.58
2022-08-18T04:24:26.180Z,16.64
2022-08-18T04:26:54.846Z,16.71
2022-08-18T04:29:23.098Z,16.75
2022-08-18T04:31:52.019Z,16.79
2022-08-18T04:34:22.915Z,16.84
2022-08-18T04:36:54.049Z,16.91
2022-08-18T04:39:22.922Z,17.00
2022-08-18T04:41:51.277Z,17.14
2022-08-18T04:44:19.641Z,17.23
2022-08-18T04:46:49.387Z,17.32
2022-08-18T04:49:17.993Z,17.42
2022-08-18T04:52:31.039Z,17.55
2022-08-18T04:54:57.051Z,17.80
2022-08-18T04:57:26.301Z,17.98
2022-08-18T04:59:54.579Z,18.02
2022-08-18T05:02:24.348Z,18.05
2022-08-18T05:04:52.727Z,18.03
2022-08-18T05:07:22.790Z,18.04
2022-08-18T05:09:52.058Z,18.06
2022-08-18T05:12:20.419Z,18.10
2022-08-18T05:14:53.995Z,18.16
2022-08-18T05:17:22.258Z,18.22
2022-08-18T05:19:52.156Z,18.29
2022-08-18T05:22:26.464Z,18.37
2022-08-18T05:24:58.311Z,18.49
2022-08-18T05:27:26.511Z,18.58
2022-08-18T05:29:55.495Z,18.68
2022-08-18T05:32:36.954Z,18.77
2022-08-18T05:35:14.233Z,18.85
2022-08-18T05:37:48.503Z,18.97
2022-08-18T05:40:16.813Z,19.05
2022-08-18T05:42:45.043Z,19.11
2022-08-18T05:45:17.691Z,19.16
2022-08-18T05:47:45.915Z,19.22
2022-08-18T05:50:16.594Z,19.28
2022-08-18T05:52:51.047Z,19.35
2022-08-18T05:55:39.583Z,19.40
2022-08-18T05:58:11.450Z,19.47
2022-08-18T06:00:40.496Z,19.52
2022-08-18T06:03:10.201Z,19.55
2022-08-18T06:05:42.112Z,19.62
2022-08-18T06:08:13.597Z,19.68
2022-08-18T06:10:44.023Z,19.75
2022-08-18T06:13:12.477Z,19.80
2022-08-18T06:15:49.764Z,19.90
2022-08-18T06:18:30.835Z,19.97
2022-08-18T06:21:11.643Z,20.06
2022-08-18T06:23:43.709Z,20.12
2022-08-18T06:26:15.269Z,20.19
2022-08-18T06:29:01.002Z,20.28
2022-08-18T06:31:31.906Z,20.32
2022-08-18T06:34:05.113Z,20.40
2022-08-18T06:36:39.094Z,20.47
2022-08-18T06:39:13.235Z,20.54
2022-08-18T06:41:44.418Z,20.55
2022-08-18T06:44:15.131Z,20.59
2022-08-18T06:46:46.017Z,20.62
2022-08-18T06:49:22.992Z,20.65
2022-08-18T06:51:51.338Z,20.66
2022-08-18T06:54:31.501Z,20.61
2022-08-18T06:56:59.930Z,20.56
2022-08-18T06:59:30.784Z,20.60
2022-08-18T07:02:02.061Z,20.62
2022-08-18T07:04:36.819Z,20.61
2022-08-18T07:07:17.517Z,20.61
2022-08-18T07:09:47.114Z,20.61
2022-08-18T07:12:22.290Z,20.58
2022-08-18T07:14:51.813Z,20.59
2022-08-18T07:17:43.351Z,20.63
2022-08-18T07:20:20.386Z,20.66
2022-08-18T07:22:56.150Z,20.61
2022-08-18T07:25:27.713Z,20.58
2022-08-18T07:27:57.192Z,20.49
2022-08-18T07:30:34.085Z,20.41
2022-08-18T07:33:08.261Z,20.39
2022-08-18T07:35:39.393Z,20.34
2022-08-18T07:38:40.895Z,20.26
2022-08-18T07:41:02.981Z,20.13
2022-08-18T07:43:35.512Z,20.00
2022-08-18T07:46:06.525Z,19.91
2022-08-18T07:48:38.524Z,19.84
2022-08-18T07:51:13.727Z,19.81
2022-08-18T07:53:55.738Z,19.78
2022-08-18T07:56:33.905Z,19.84
2022-08-18T07:59:04.585Z,19.86
2022-08-18T08:01:35.287Z,19.87
2022-08-18T08:04:08.566Z,19.91
2022-08-18T08:06:40.375Z,19.87
2022-08-18T08:09:12.717Z,19.88
2022-08-18T08:11:49.761Z,19.94
2022-08-18T08:14:28.002Z,20.02
2022-08-18T08:17:00.968Z,20.12
2022-08-18T08:20:00.363Z,20.24
2022-08-18T08:22:32.173Z,20.33
2022-08-18T08:25:10.735Z,20.43
2022-08-18T08:28:00.450Z,20.48
2022-08-18T08:30:29.298Z,20.44
2022-08-18T08:33:03.536Z,20.48
2022-08-18T08:35:48.965Z,20.56
2022-08-18T08:38:40.354Z,20.54
2022-08-18T08:41:11.139Z,20.51
2022-08-18T08:43:42.675Z,20.54
2022-08-18T08:46:12.415Z,20.49
2022-08-18T08:48:42.443Z,20.47
2022-08-18T08:51:20.763Z,20.48
2022-08-18T08:53:50.508Z,20.42
2022-08-18T08:56:20.168Z,20.43
2022-08-18T08:58:50.613Z,20.46
2022-08-18T09:01:24.808Z,20.52
2022-08-18T09:03:57.200Z,20.61
2022-08-18T09:06:26.904Z,20.65
2022-08-18T09:09:16.211Z,20.60
2022-08-18T09:12:07.030Z,20.58
2022-08-18T09:14:56.283Z,20.65
2022-08-18T09:17:42.538Z,20.67
2022-08-18T09:20:25.781Z,20.78
2022-08-18T09:22:55.651Z,20.87
2022-08-18T09:25:35.249Z,20.84
2022-08-18T09:28:12.383Z,20.85
2022-08-18T09:30:47.511Z,20.89
2022-08-18T09:33:34.908Z,21.03
2022-08-18T09:39:40.230Z,21.17
2022-08-18T09:42:10.563Z,21.20
2022-08-18T09:44:58.621Z,21.26
2022-08-18T09:48:00.626Z,21.28
2022-08-18T09:50:57.175Z,21.28
2022-08-18T09:53:38.058Z,21.22
2022-08-18T09:56:08.208Z,21.16
2022-08-18T09:58:56.643Z,21.15
2022-08-18T10:01:34.542Z,21.18
2022-08-18T10:04:32.329Z,21.05
2022-08-18T10:07:35.446Z,20.93
2022-08-18T10:10:58.831Z,20.77
2022-08-18T10:13:05.150Z,20.68
2022-08-18T10:15:40.804Z,20.62
2022-08-18T10:18:41.358Z,20.58
2022-08-18T10:21:12.988Z,20.56
2022-08-18T10:24:03.123Z,20.58
2022-08-18T10:27:10.958Z,20.60
2022-08-18T10:30:01.872Z,20.64
2022-08-18T10:32:44.328Z,20.59
2022-08-18T10:35:58.387Z,20.57
2022-08-18T10:38:49.344Z,20.58
2022-08-18T10:41:25.191Z,20.65
2022-08-18T10:43:55.456Z,20.69
2022-08-18T10:46:30.670Z,20.66
2022-08-18T10:49:09.413Z,20.76
2022-08-18T10:52:00.118Z,20.84
2022-08-18T10:54:34.063Z,20.91
2022-08-18T10:57:09.438Z,20.99
2022-08-18T10:59:48.975Z,21.02
2022-08-18T11:02:40.039Z,21.11
2022-08-18T11:05:11.021Z,21.13
2022-08-18T11:07:44.666Z,21.00
2022-08-18T11:10:57.636Z,21.00
2022-08-18T11:13:10.880Z,21.06
2022-08-18T11:15:48.953Z,21.18
2022-08-18T11:18:30.276Z,21.18
2022-08-18T11:21:27.076Z,21.13
2022-08-18T11:24:10.183Z,21.11
2022-08-18T11:26:39.614Z,21.10
2022-08-18T11:29:23.303Z,21.07
2022-08-18T11:31:53.497Z,21.00
2022-08-18T11:34:26.981Z,20.97
2022-08-18T11:36:59.335Z,20.85
2022-08-18T11:39:37.731Z,20.68
2022-08-18T11:42:07.552Z,20.52
2022-08-18T11:44:45.219Z,20.27
2022-08-18T11:47:17.124Z,20.18
2022-08-18T11:49:58.297Z,20.11
2022-08-18T11:55:24.390Z,19.88
2022-08-18T11:57:56.072Z,19.86
2022-08-18T12:01:02.907Z,19.84
2022-08-18T12:03:36.444Z,19.82
2022-08-18T12:06:19.407Z,19.82
2022-08-18T12:08:59.519Z,19.71
2022-08-18T12:11:29.481Z,19.79
2022-08-18T12:14:01.983Z,19.94
2022-08-18T12:16:54.047Z,20.23
2022-08-18T12:19:24.233Z,20.44
2022-08-18T12:21:54.517Z,20.72
2022-08-18T12:24:26.188Z,20.66
2022-08-18T12:27:00.923Z,20.72
2022-08-18T12:29:36.690Z,20.70
2022-08-18T12:32:18.044Z,20.74
2022-08-18T12:35:07.172Z,20.90
2022-08-18T12:40:26.931Z,21.18
2022-08-18T12:42:55.184Z,21.29
2022-08-18T12:45:25.881Z,21.21
2022-08-18T12:47:57.119Z,21.29
2022-08-18T12:50:31.120Z,21.40
2022-08-18T12:53:00.896Z,21.57
2022-08-18T12:55:29.768Z,21.61
2022-08-18T12:57:57.928Z,21.68
2022-08-18T13:00:28.978Z,21.78
2022-08-18T13:02:59.330Z,21.75
2022-08-18T13:05:30.091Z,21.64
2022-08-18T13:07:59.381Z,21.56
2022-08-18T13:10:45.689Z,21.62
2022-08-18T13:13:16.497Z,21.72
2022-08-18T13:15:57.913Z,21.75
2022-08-18T13:18:29.457Z,21.77
2022-08-18T13:20:58.341Z,21.71
2022-08-18T13:23:27.616Z,21.74
2022-08-18T13:26:01.465Z,21.75
2022-08-18T13:28:33.378Z,21.84
2022-08-18T13:31:04.238Z,21.94
2022-08-18T13:33:56.662Z,21.95
2022-08-18T13:36:23.511Z,22.02
2022-08-18T13:38:54.490Z,22.03
2022-08-18T13:43:52.825Z,22.27
2022-08-18T13:46:24.283Z,22.23
2022-08-18T13:49:02.395Z,22.24
2022-08-18T13:51:31.550Z,22.28
2022-08-18T13:54:26.592Z,22.32
2022-08-18T13:56:51.800Z,22.52
2022-08-18T13:59:20.825Z,22.64
2022-08-18T14:01:52.555Z,22.71
2022-08-18T14:04:27.901Z,22.66
2022-08-18T14:07:00.472Z,22.59
2022-08-18T14:09:36.120Z,22.60
2022-08-18T14:12:06.735Z,22.61
2022-08-18T14:14:44.793Z,22.71
2022-08-18T14:17:15.093Z,22.77
2022-08-18T14:20:02.942Z,22.73
2022-08-18T14:22:48.308Z,22.69
2022-08-18T14:25:34.086Z,22.75
2022-08-18T14:28:03.900Z,22.91
2022-08-18T14:30:32.477Z,22.80
2022-08-18T14:33:01.223Z,23.02
2022-08-18T14:36:04.392Z,23.22
2022-08-18T14:38:19.375Z,23.27
2022-08-18T14:40:47.858Z,23.25
2022-08-18T14:43:16.832Z,23.19
2022-08-18T14:45:48.884Z,23.27
2022-08-18T14:48:19.127Z,23.36
2022-08-18T14:50:50.323Z,23.44
2022-08-18T14:53:20.326Z,23.63
2022-08-18T14:55:52.218Z,23.68
2022-08-18T14:58:20.757Z,23.80
2022-08-18T15:00:53.743Z,23.88
2022-08-18T15:03:30.972Z,23.88
2022-08-18T15:06:04.668Z,23.84
2022-08-18T15:08:35.417Z,23.74
2022-08-18T15:11:06.162Z,23.78
2022-08-18T15:13:41.486Z,23.75
2022-08-18T15:16:13.825Z,23.71
2022-08-18T15:18:42.196Z,23.62
2022-08-18T15:21:35.537Z,23.78
2022-08-18T15:24:24.826Z,23.93
2022-08-18T15:26:57.408Z,23.95
2022-08-18T15:29:29.180Z,23.77
2022-08-18T15:32:05.608Z,23.65
2022-08-18T15:34:46.909Z,23.58
2022-08-18T15:37:24.284Z,23.47
2022-08-18T15:40:05.407Z,23.61
2022-08-18T15:42:33.741Z,23.45
2022-08-18T15:45:12.108Z,23.41
2022-08-18T15:47:42.376Z,23.42
2022-08-18T15:50:25.543Z,23.32
2022-08-18T15:52:58.018Z,23.28
2022-08-18T15:55:28.869Z,23.16
2022-08-18T15:57:58.289Z,23.08
2022-08-18T16:00:27.551Z,22.98
2022-08-18T16:02:58.286Z,22.93
2022-08-18T16:05:28.637Z,22.97
2022-08-18T16:08:01.415Z,22.80
2022-08-18T16:10:33.416Z,22.70
2022-08-18T16:13:04.939Z,22.69
2022-08-18T16:15:36.909Z,22.62
2022-08-18T16:18:05.677Z,22.66
2022-08-18T16:20:33.955Z,22.56
2022-08-18T16:23:03.615Z,22.50
2022-08-18T16:25:32.133Z,22.47
2022-08-18T16:28:00.504Z,22.49
2022-08-18T16:30:29.358Z,22.52
2022-08-18T16:33:01.385Z,22.51
2022-08-18T16:35:29.550Z,22.54
2022-08-18T16:37:58.330Z,22.57
2022-08-18T16:40:29.884Z,22.53
2022-08-18T16:43:00.913Z,22.46
2022-08-18T16:45:29.063Z,22.33
2022-08-18T16:47:57.313Z,22.23
2022-08-18T16:50:26.077Z,22.16
2022-08-18T16:52:54.379Z,22.12
2022-08-18T16:55:23.048Z,22.08
2022-08-18T16:58:13.576Z,22.11
2022-08-18T17:01:00.507Z,22.16
2022-08-18T17:03:45.971Z,22.19
2022-08-18T17:06:15.533Z,22.08
2022-08-18T17:08:43.889Z,22.09
2022-08-18T17:11:13.925Z,21.98
2022-08-18T17:13:43.582Z,21.91
2022-08-18T17:16:11.820Z,21.95
2022-08-18T17:18:40.018Z,21.87
2022-08-18T17:21:09.163Z,21.84
2022-08-18T17:23:38.787Z,21.82
2022-08-18T17:26:07.678Z,21.80
2022-08-18T17:28:50.320Z,21.83
2022-08-18T17:31:20.999Z,21.78
2022-08-18T17:33:49.067Z,21.83
2022-08-18T17:36:20.659Z,21.78
2022-08-18T17:38:57.398Z,21.76
2022-08-18T17:41:26.026Z,21.76
2022-08-18T17:43:56.259Z,21.68
2022-08-18T17:46:32.264Z,21.67
2022-08-18T17:49:02.146Z,21.66
2022-08-18T17:51:37.427Z,21.65
2022-08-18T17:54:29.743Z,21.62
2022-08-18T17:57:01.550Z,21.52
2022-08-18T17:59:51.066Z,21.49
2022-08-18T18:02:29.672Z,21.44
2022-08-18T18:05:00.103Z,21.39
2022-08-18T18:07:30.492Z,21.34
2022-08-18T18:10:00.784Z,21.28
2022-08-18T18:12:29.953Z,21.25
2022-08-18T18:14:58.479Z,21.23
2022-08-18T18:17:29.783Z,21.21
2022-08-18T18:20:15.718Z,21.20
2022-08-18T18:22:44.558Z,21.19
2022-08-18T18:25:13.666Z,21.16
2022-08-18T18:27:43.741Z,21.13
2022-08-18T18:30:27.841Z,21.11
2022-08-18T18:33:00.213Z,21.11
2022-08-18T18:35:29.091Z,21.06
2022-08-18T18:37:58.228Z,21.03
2022-08-18T18:40:29.344Z,21.02
2022-08-18T18:42:57.726Z,20.97
2022-08-18T18:45:28.309Z,20.96
2022-08-18T18:48:05.558Z,20.97
2022-08-18T18:50:55.516Z,20.92
2022-08-18T18:53:28.500Z,20.90
2022-08-18T18:56:02.527Z,20.82
2022-08-18T18:58:37.587Z,20.82
2022-08-18T19:01:07.916Z,20.80
2022-08-18T19:03:38.886Z,20.79
2022-08-18T19:06:14.483Z,20.76
2022-08-18T19:08:46.546Z,20.73
2022-08-18T19:11:17.589Z,20.66
2022-08-18T19:13:54.156Z,20.63
2022-08-18T19:16:24.679Z,20.61
2022-08-18T19:18:57.844Z,20.52
2022-08-18T19:22:05.815Z,20.48
2022-08-18T19:24:31.236Z,20.46
2022-08-18T19:27:01.713Z,20.43
2022-08-18T19:29:31.661Z,20.41
2022-08-18T19:32:05.315Z,20.35
2022-08-18T19:34:37.591Z,20.32
2022-08-18T19:37:26.713Z,20.28
2022-08-18T19:40:04.408Z,20.26
2022-08-18T19:42:35.521Z,20.27
2022-08-18T19:45:16.499Z,20.27
2022-08-18T19:47:48.003Z,20.25
2022-08-18T19:50:20.143Z,20.26
2022-08-18T19:52:59.790Z,20.24
2022-08-18T19:55:33.472Z,20.22
2022-08-18T19:58:12.247Z,20.20
2022-08-18T20:00:44.885Z,20.16
2022-08-18T20:03:40.202Z,20.10
2022-08-18T20:06:34.529Z,20.08
2022-08-18T20:09:25.295Z,20.08
2022-08-18T20:12:17.581Z,20.08
2022-08-18T20:14:45.851Z,20.05
2022-08-18T20:17:19.989Z,20.03
2022-08-18T20:20:06.038Z,19.96
2022-08-18T20:22:39.124Z,19.94
2022-08-18T20:25:21.552Z,19.92
2022-08-18T20:27:51.244Z,19.86
2022-08-18T20:30:24.721Z,19.81
2022-08-18T20:33:10.816Z,19.81
2022-08-18T20:35:40.929Z,19.80
2022-08-18T20:38:16.343Z,19.82
2022-08-18T20:40:45.343Z,19.76
2022-08-18T20:43:27.634Z,19.73
2022-08-18T20:46:07.813Z,19.72
2022-08-18T20:48:44.143Z,19.72
2022-08-18T20:51:12.622Z,19.69
2022-08-18T20:54:01.363Z,19.66
2022-08-18T20:56:43.430Z,19.65
2022-08-18T20:59:20.282Z,19.57
2022-08-18T21:01:56.122Z,19.58
2022-08-18T21:04:49.513Z,19.59
2022-08-18T21:07:36.271Z,19.59
2022-08-18T21:10:12.680Z,19.59
2022-08-18T21:12:52.456Z,19.58
2022-08-18T21:15:21.849Z,19.56
2022-08-18T21:17:58.137Z,19.53
2022-08-18T21:20:26.374Z,19.53
2022-08-18T21:23:05.132Z,19.50
2022-08-18T21:25:34.661Z,19.48
2022-08-18T21:28:03.960Z,19.48
2022-08-18T21:30:33.025Z,19.48
2022-08-18T21:33:02.103Z,19.47
2022-08-18T21:35:32.642Z,19.48
2022-08-18T21:38:01.762Z,19.49
2022-08-18T21:40:32.346Z,19.49
2022-08-18T21:43:02.066Z,19.47
2022-08-18T21:45:30.391Z,19.48
2022-08-18T21:47:59.907Z,19.49
2022-08-18T21:50:29.607Z,19.48
2022-08-18T21:52:58.767Z,19.45
2022-08-18T21:55:30.358Z,19.42
2022-08-18T21:58:05.843Z,19.43
2022-08-18T22:00:35.992Z,19.45
2022-08-18T22:03:21.809Z,19.44
2022-08-18T22:05:59.908Z,19.45
2022-08-18T22:08:29.432Z,19.47
2022-08-18T22:11:44.204Z,19.46
2022-08-18T22:14:36.254Z,19.44
2022-08-18T22:17:29.158Z,19.40
2022-08-18T22:19:57.667Z,19.39
2022-08-18T22:22:43.515Z,19.37
2022-08-18T22:25:12.230Z,19.34
2022-08-18T22:27:40.465Z,19.24
2022-08-18T22:30:10.679Z,19.17
2022-08-18T22:32:39.322Z,19.15
2022-08-18T22:35:09.086Z,19.07
2022-08-18T22:37:40.853Z,19.03
2022-08-18T22:40:10.711Z,19.04
2022-08-18T22:42:38.998Z,19.01
2022-08-18T22:45:12.367Z,19.00
2022-08-18T22:47:43.676Z,19.00
2022-08-18T22:50:13.529Z,19.00
2022-08-18T22:52:42.829Z,18.96
2022-08-18T22:55:12.535Z,18.93
2022-08-18T22:57:41.077Z,18.94
2022-08-18T23:00:14.543Z,18.92
2022-08-18T23:02:43.123Z,18.94
2022-08-18T23:05:12.038Z,18.88
2022-08-18T23:07:40.202Z,18.86
2022-08-18T23:10:13.597Z,18.82
2022-08-18T23:12:42.722Z,18.79
2022-08-18T23:15:12.571Z,18.77
2022-08-18T23:17:40.756Z,18.78
2022-08-18T23:20:11.411Z,18.81
2022-08-18T23:22:39.855Z,18.84
2022-08-18T23:25:09.487Z,18.82
2022-08-18T23:27:37.974Z,18.79
2022-08-18T23:30:06.871Z,18.80
2022-08-18T23:32:36.550Z,18.82
2022-08-18T23:35:05.179Z,18.81
2022-08-18T23:37:33.355Z,18.78
2022-08-18T23:40:01.594Z,18.75
2022-08-18T23:42:31.648Z,18.68
2022-08-18T23:45:03.235Z,18.66
2022-08-18T23:47:31.383Z,18.63
2022-08-18T23:50:01.715Z,18.64
2022-08-18T23:52:29.872Z,18.66
2022-08-18T23:54:57.931Z,18.69
2022-08-18T23:57:26.124Z,18.71
2022-08-18T23:59:54.559Z,18.70
